PWSweather.com
Personal Weather Stations
Station Observations
HVALPSUND
Hvalpsund, FarsoeDK 9640

HvalpsundFarsoeDK 9640

Lat: 56.705311, Lon: 9.203638

Elevation: 5

Station Type: Vantage Pro2

http://hvalpsundvejr.dk

Latest ConditionsUpdated 3:01:00 AM GMT+01:01 Friday, Dec 14, 2018
Currently Today's Max Today's Min Today's Average
Temperature 33.1°F0.6°C 33.6°F0.9°C 32.3°F0.2°C 33.0°F0.6°C
Dew Point 29.7°F-1.3°C 29.8°F-1.2°C 27.1°F-2.7°C 28.6°F-1.9°C
Winds 10.4 mph NE16.7 kmh NE 12.6 mph -20.3 kmh - - 7.7 mph 12.4 kmh
Wind Gusts 13.0 mph20.9 kmh 17.0 mph27.4 kmh - -
Humidity 87% 87% 81% 84%
Pressure 30.38 in1028.8 mb 30.40 in1029.5 mb 30.38 in1028.8 mb -
Hour Temp Dew Point Humidity Winds Wind Gusts Pressure Precip Precip Rate Daily Precip Total
03:01 AM 33.1°F0.6°C 29.7°F-1.3°C 87% 10.4 mph NE16.7 kmh NE 13.0 mph20.9 kmh 30.38 in1028.8 mb 0.00 in0.0 mm 0.00 in0.0 mm 0.00 in0.0 mm
03:00 AM 33.1°F0.6°C 29.7°F-1.3°C 87% 8.7 mph NE14.0 kmh NE 13.0 mph20.9 kmh 30.38 in1028.8 mb 0.00 in0.0 mm 0.00 in0.0 mm 0.00 in0.0 mm
02:59 AM 33.1°F0.6°C 29.7°F-1.3°C 87% 9.9 mph NE15.9 kmh NE 13.0 mph20.9 kmh 30.38 in1028.8 mb 0.00 in0.0 mm 0.00 in0.0 mm 0.00 in0.0 mm
02:58 AM 33.0°F0.6°C 29.6°F-1.3°C 87% 8.9 mph NE14.3 kmh NE 15.0 mph24.1 kmh 30.39 in1029.1 mb 0.00 in0.0 mm 0.00 in0.0 mm 0.00 in0.0 mm
02:57 AM 33.1°F0.6°C 29.7°F-1.3°C 87% 11.0 mph NE17.7 kmh NE 15.0 mph24.1 kmh 30.39 in1029.1 mb 0.00 in0.0 mm 0.00 in0.0 mm 0.00 in0.0 mm
02:56 AM 33.1°F0.6°C 29.7°F-1.3°C 87% 9.4 mph NE15.1 kmh NE 14.0 mph22.5 kmh 30.38 in1028.8 mb 0.00 in0.0 mm 0.00 in0.0 mm 0.00 in0.0 mm
02:55 AM 33.2°F0.7°C 29.8°F-1.2°C 87% 9.3 mph NE15.0 kmh NE 14.0 mph22.5 kmh 30.38 in1028.8 mb 0.00 in0.0 mm 0.00 in0.0 mm 0.00 in0.0 mm
02:54 AM 33.1°F0.6°C 29.7°F-1.3°C 87% 10.1 mph NE16.3 kmh NE 15.0 mph24.1 kmh 30.38 in1028.8 mb 0.00 in0.0 mm 0.00 in0.0 mm 0.00 in0.0 mm
02:53 AM 33.1°F0.6°C 29.7°F-1.3°C 87% 10.2 mph NE16.4 kmh NE 15.0 mph24.1 kmh 30.38 in1028.8 mb 0.00 in0.0 mm 0.00 in0.0 mm 0.00 in0.0 mm
02:52 AM 33.1°F0.6°C 29.4°F-1.4°C 86% 6.6 mph NE10.6 kmh NE 11.0 mph17.7 kmh 30.39 in1029.1 mb 0.00 in0.0 mm 0.00 in0.0 mm 0.00 in0.0 mm
02:51 AM 33.1°F0.6°C 29.4°F-1.4°C 86% 9.1 mph NE14.6 kmh NE 13.0 mph20.9 kmh 30.39 in1029.1 mb 0.00 in0.0 mm 0.00 in0.0 mm 0.00 in0.0 mm
02:50 AM 33.2°F0.7°C 29.5°F-1.4°C 86% 10.1 mph NE16.3 kmh NE 15.0 mph24.1 kmh 30.39 in1029.1 mb 0.00 in0.0 mm 0.00 in0.0 mm 0.00 in0.0 mm
02:49 AM 33.1°F0.6°C 29.4°F-1.4°C 86% 10.8 mph NE17.4 kmh NE 15.0 mph24.1 kmh 30.39 in1029.1 mb 0.00 in0.0 mm 0.00 in0.0 mm 0.00 in0.0 mm
02:48 AM 33.1°F0.6°C 29.4°F-1.4°C 86% 5.3 mph NE8.5 kmh NE 13.0 mph20.9 kmh 30.39 in1029.1 mb 0.00 in0.0 mm 0.00 in0.0 mm 0.00 in0.0 mm
02:47 AM 33.1°F0.6°C 29.4°F-1.4°C 86% 9.6 mph NE15.4 kmh NE 13.0 mph20.9 kmh 30.39 in1029.1 mb 0.00 in0.0 mm 0.00 in0.0 mm 0.00 in0.0 mm
02:46 AM 33.2°F0.7°C 29.5°F-1.4°C 86% 8.1 mph NE13.0 kmh NE 13.0 mph20.9 kmh 30.39 in1029.1 mb 0.00 in0.0 mm 0.00 in0.0 mm 0.00 in0.0 mm
02:45 AM 33.1°F0.6°C 29.4°F-1.4°C 86% 10.0 mph NE16.1 kmh NE 13.0 mph20.9 kmh 30.39 in1029.1 mb 0.00 in0.0 mm 0.00 in0.0 mm 0.00 in0.0 mm
02:44 AM 33.1°F0.6°C 29.4°F-1.4°C 86% 10.8 mph NE17.4 kmh NE 13.0 mph20.9 kmh 30.39 in1029.1 mb 0.00 in0.0 mm 0.00 in0.0 mm 0.00 in0.0 mm
02:43 AM 33.2°F0.7°C 29.5°F-1.4°C 86% 9.2 mph NE14.8 kmh NE 13.0 mph20.9 kmh 30.39 in1029.1 mb 0.00 in0.0 mm 0.00 in0.0 mm 0.00 in0.0 mm
02:42 AM 33.2°F0.7°C 29.5°F-1.4°C 86% 8.2 mph NE13.2 kmh NE 12.0 mph19.3 kmh 30.39 in1029.1 mb 0.00 in0.0 mm 0.00 in0.0 mm 0.00 in0.0 mm
02:41 AM 33.1°F0.6°C 29.4°F-1.4°C 86% 9.4 mph NE15.1 kmh NE 12.0 mph19.3 kmh 30.39 in1029.1 mb 0.00 in0.0 mm 0.00 in0.0 mm 0.00 in0.0 mm
02:40 AM 33.2°F0.7°C 29.5°F-1.4°C 86% 6.6 mph NE10.6 kmh NE 12.0 mph19.3 kmh 30.39 in1029.1 mb 0.00 in0.0 mm 0.00 in0.0 mm 0.00 in0.0 mm
02:39 AM 33.2°F0.7°C 29.5°F-1.4°C 86% 9.7 mph NE15.6 kmh NE 12.0 mph19.3 kmh 30.39 in1029.1 mb 0.00 in0.0 mm 0.00 in0.0 mm 0.00 in0.0 mm
02:38 AM 33.2°F0.7°C 29.5°F-1.4°C 86% 8.7 mph NE14.0 kmh NE 14.0 mph22.5 kmh 30.39 in1029.1 mb 0.00 in0.0 mm 0.00 in0.0 mm 0.00 in0.0 mm
02:37 AM 33.2°F0.7°C 29.5°F-1.4°C 86% 10.2 mph NE16.4 kmh NE 14.0 mph22.5 kmh 30.39 in1029.1 mb 0.00 in0.0 mm 0.00 in0.0 mm 0.00 in0.0 mm
02:36 AM 33.2°F0.7°C 29.5°F-1.4°C 86% 8.6 mph NE13.8 kmh NE 13.0 mph20.9 kmh 30.39 in1029.1 mb 0.00 in0.0 mm 0.00 in0.0 mm 0.00 in0.0 mm
02:35 AM 33.2°F0.7°C 29.5°F-1.4°C 86% 9.3 mph NE15.0 kmh NE 15.0 mph24.1 kmh 30.39 in1029.1 mb 0.00 in0.0 mm 0.00 in0.0 mm 0.00 in0.0 mm
02:34 AM 33.2°F0.7°C 29.2°F-1.6°C 85% 11.9 mph NE19.2 kmh NE 15.0 mph24.1 kmh 30.39 in1029.1 mb 0.00 in0.0 mm 0.00 in0.0 mm 0.00 in0.0 mm
02:33 AM 33.2°F0.7°C 29.2°F-1.6°C 85% 11.9 mph NE19.2 kmh NE 15.0 mph24.1 kmh 30.39 in1029.1 mb 0.00 in0.0 mm 0.00 in0.0 mm 0.00 in0.0 mm
02:32 AM 33.3°F0.7°C 29.3°F-1.5°C 85% 12.0 mph NE19.3 kmh NE 12.0 mph19.3 kmh 30.39 in1029.1 mb 0.00 in0.0 mm 0.00 in0.0 mm 0.00 in0.0 mm
02:31 AM 33.2°F0.7°C 29.2°F-1.6°C 85% 8.0 mph NE12.9 kmh NE 11.0 mph17.7 kmh 30.39 in1029.1 mb 0.00 in0.0 mm 0.00 in0.0 mm 0.00 in0.0 mm
02:30 AM 33.2°F0.7°C 29.2°F-1.6°C 85% 10.0 mph ENE16.1 kmh ENE 13.0 mph20.9 kmh 30.39 in1029.1 mb 0.00 in0.0 mm 0.00 in0.0 mm 0.00 in0.0 mm
02:29 AM 33.2°F0.7°C 29.2°F-1.6°C 85% 11.1 mph NE17.9 kmh NE 16.0 mph25.7 kmh 30.39 in1029.1 mb 0.00 in0.0 mm 0.00 in0.0 mm 0.00 in0.0 mm
02:28 AM 33.2°F0.7°C 29.2°F-1.6°C 85% 7.0 mph NE11.3 kmh NE 15.0 mph24.1 kmh 30.39 in1029.1 mb 0.00 in0.0 mm 0.00 in0.0 mm 0.00 in0.0 mm
02:27 AM 33.3°F0.7°C 29.3°F-1.5°C 85% 9.8 mph NE15.8 kmh NE 15.0 mph24.1 kmh 30.39 in1029.1 mb 0.00 in0.0 mm 0.00 in0.0 mm 0.00 in0.0 mm
02:26 AM 33.3°F0.7°C 29.3°F-1.5°C 85% 8.9 mph NE14.3 kmh NE 12.0 mph19.3 kmh 30.39 in1029.1 mb 0.00 in0.0 mm 0.00 in0.0 mm 0.00 in0.0 mm
02:25 AM 33.3°F0.7°C 29.3°F-1.5°C 85% 8.4 mph NE13.5 kmh NE 13.0 mph20.9 kmh 30.39 in1029.1 mb 0.00 in0.0 mm 0.00 in0.0 mm 0.00 in0.0 mm
02:24 AM 33.2°F0.7°C 29.2°F-1.6°C 85% 10.8 mph NE17.4 kmh NE 15.0 mph24.1 kmh 30.39 in1029.1 mb 0.00 in0.0 mm 0.00 in0.0 mm 0.00 in0.0 mm
02:23 AM 33.3°F0.7°C 29.3°F-1.5°C 85% 10.4 mph NE16.7 kmh NE 15.0 mph24.1 kmh 30.39 in1029.1 mb 0.00 in0.0 mm 0.00 in0.0 mm 0.00 in0.0 mm
02:22 AM 33.3°F0.7°C 29.3°F-1.5°C 85% 9.6 mph NE15.4 kmh NE 15.0 mph24.1 kmh 30.39 in1029.1 mb 0.00 in0.0 mm 0.00 in0.0 mm 0.00 in0.0 mm
02:21 AM 33.3°F0.7°C 29.3°F-1.5°C 85% 11.2 mph NE18.0 kmh NE 15.0 mph24.1 kmh 30.39 in1029.1 mb 0.00 in0.0 mm 0.00 in0.0 mm 0.00 in0.0 mm
02:20 AM 33.4°F0.8°C 29.4°F-1.4°C 85% 8.0 mph NE12.9 kmh NE 13.0 mph20.9 kmh 30.39 in1029.1 mb 0.00 in0.0 mm 0.00 in0.0 mm 0.00 in0.0 mm
02:19 AM 33.4°F0.8°C 29.4°F-1.4°C 85% 8.2 mph NE13.2 kmh NE 12.0 mph19.3 kmh 30.39 in1029.1 mb 0.00 in0.0 mm 0.00 in0.0 mm 0.00 in0.0 mm
02:18 AM 33.4°F0.8°C 29.4°F-1.4°C 85% 7.9 mph NE12.7 kmh NE 13.0 mph20.9 kmh 30.39 in1029.1 mb 0.00 in0.0 mm 0.00 in0.0 mm 0.00 in0.0 mm
02:17 AM 33.5°F0.8°C 29.5°F-1.4°C 85% 9.4 mph NE15.1 kmh NE 13.0 mph20.9 kmh 30.39 in1029.1 mb 0.00 in0.0 mm 0.00 in0.0 mm 0.00 in0.0 mm
02:16 AM 33.4°F0.8°C 29.4°F-1.4°C 85% 9.6 mph NE15.4 kmh NE 13.0 mph20.9 kmh 30.39 in1029.1 mb 0.00 in0.0 mm 0.00 in0.0 mm 0.00 in0.0 mm
02:15 AM 33.4°F0.8°C 29.4°F-1.4°C 85% 8.2 mph NE13.2 kmh NE 14.0 mph22.5 kmh 30.39 in1029.1 mb 0.00 in0.0 mm 0.00 in0.0 mm 0.00 in0.0 mm
02:14 AM 33.5°F0.8°C 29.5°F-1.4°C 85% 9.5 mph NE15.3 kmh NE 14.0 mph22.5 kmh 30.39 in1029.1 mb 0.00 in0.0 mm 0.00 in0.0 mm 0.00 in0.0 mm
02:13 AM 33.5°F0.8°C 29.5°F-1.4°C 85% 10.1 mph NE16.3 kmh NE 14.0 mph22.5 kmh 30.39 in1029.1 mb 0.00 in0.0 mm 0.00 in0.0 mm 0.00 in0.0 mm
02:12 AM 33.5°F0.8°C 29.5°F-1.4°C 85% 11.1 mph NE17.9 kmh NE 14.0 mph22.5 kmh 30.39 in1029.1 mb 0.00 in0.0 mm 0.00 in0.0 mm 0.00 in0.0 mm
02:11 AM 33.5°F0.8°C 29.5°F-1.4°C 85% 9.9 mph NE15.9 kmh NE 14.0 mph22.5 kmh 30.39 in1029.1 mb 0.00 in0.0 mm 0.00 in0.0 mm 0.00 in0.0 mm
02:10 AM 33.5°F0.8°C 29.5°F-1.4°C 85% 10.5 mph NE16.9 kmh NE 14.0 mph22.5 kmh 30.39 in1029.1 mb 0.00 in0.0 mm 0.00 in0.0 mm 0.00 in0.0 mm
02:09 AM 33.6°F0.9°C 29.3°F-1.5°C 84% 9.6 mph NE15.4 kmh NE 13.0 mph20.9 kmh 30.39 in1029.1 mb 0.00 in0.0 mm 0.00 in0.0 mm 0.00 in0.0 mm
02:08 AM 33.5°F0.8°C 29.2°F-1.6°C 84% 6.6 mph NE10.6 kmh NE 11.0 mph17.7 kmh 30.39 in1029.1 mb 0.00 in0.0 mm 0.00 in0.0 mm 0.00 in0.0 mm
02:07 AM 33.6°F0.9°C 29.3°F-1.5°C 84% 8.1 mph NE13.0 kmh NE 11.0 mph17.7 kmh 30.39 in1029.1 mb 0.00 in0.0 mm 0.00 in0.0 mm 0.00 in0.0 mm
02:06 AM 33.5°F0.8°C 29.2°F-1.6°C 84% 6.4 mph NE10.3 kmh NE 10.0 mph16.1 kmh 30.39 in1029.1 mb 0.00 in0.0 mm 0.00 in0.0 mm 0.00 in0.0 mm
02:05 AM 33.5°F0.8°C 29.2°F-1.6°C 84% 5.8 mph NE9.3 kmh NE 10.0 mph16.1 kmh 30.39 in1029.1 mb 0.00 in0.0 mm 0.00 in0.0 mm 0.00 in0.0 mm
02:04 AM 33.6°F0.9°C 29.3°F-1.5°C 84% 6.7 mph ENE10.8 kmh ENE 10.0 mph16.1 kmh 30.39 in1029.1 mb 0.00 in0.0 mm 0.00 in0.0 mm 0.00 in0.0 mm
02:03 AM 33.6°F0.9°C 29.3°F-1.5°C 84% 5.4 mph NE8.7 kmh NE 10.0 mph16.1 kmh 30.39 in1029.1 mb 0.00 in0.0 mm 0.00 in0.0 mm 0.00 in0.0 mm
02:02 AM 33.6°F0.9°C 29.3°F-1.5°C 84% 7.2 mph NE11.6 kmh NE 12.0 mph19.3 kmh 30.39 in1029.1 mb 0.00 in0.0 mm 0.00 in0.0 mm 0.00 in0.0 mm
02:01 AM 33.6°F0.9°C 29.3°F-1.5°C 84% 9.0 mph NE14.5 kmh NE 13.0 mph20.9 kmh 30.39 in1029.1 mb 0.00 in0.0 mm 0.00 in0.0 mm 0.00 in0.0 mm
02:00 AM 33.6°F0.9°C 29.3°F-1.5°C 84% 9.3 mph NE15.0 kmh NE 13.0 mph20.9 kmh 30.39 in1029.1 mb 0.00 in0.0 mm 0.00 in0.0 mm 0.00 in0.0 mm
01:59 AM 33.5°F0.8°C 29.2°F-1.6°C 84% 10.5 mph NE16.9 kmh NE 12.0 mph19.3 kmh 30.39 in1029.1 mb 0.00 in0.0 mm 0.00 in0.0 mm 0.00 in0.0 mm
01:58 AM 33.6°F0.9°C 29.3°F-1.5°C 84% 10.0 mph NE16.1 kmh NE 12.0 mph19.3 kmh 30.39 in1029.1 mb 0.00 in0.0 mm 0.00 in0.0 mm 0.00 in0.0 mm
01:57 AM 33.6°F0.9°C 29.3°F-1.5°C 84% 8.4 mph NE13.5 kmh NE 14.0 mph22.5 kmh 30.39 in1029.1 mb 0.00 in0.0 mm 0.00 in0.0 mm 0.00 in0.0 mm
01:56 AM 33.5°F0.8°C 29.2°F-1.6°C 84% 11.8 mph NE19.0 kmh NE 16.0 mph25.7 kmh 30.39 in1029.1 mb 0.00 in0.0 mm 0.00 in0.0 mm 0.00 in0.0 mm
01:55 AM 33.5°F0.8°C 29.2°F-1.6°C 84% 12.6 mph NE20.3 kmh NE 16.0 mph25.7 kmh 30.39 in1029.1 mb 0.00 in0.0 mm 0.00 in0.0 mm 0.00 in0.0 mm
01:54 AM 33.5°F0.8°C 29.2°F-1.6°C 84% 10.5 mph NE16.9 kmh NE 17.0 mph27.4 kmh 30.39 in1029.1 mb 0.00 in0.0 mm 0.00 in0.0 mm 0.00 in0.0 mm
01:53 AM 33.5°F0.8°C 29.2°F-1.6°C 84% 9.6 mph NE15.4 kmh NE 17.0 mph27.4 kmh 30.39 in1029.1 mb 0.00 in0.0 mm 0.00 in0.0 mm 0.00 in0.0 mm
01:52 AM 33.5°F0.8°C 29.2°F-1.6°C 84% 7.5 mph NE12.1 kmh NE 12.0 mph19.3 kmh 30.39 in1029.1 mb 0.00 in0.0 mm 0.00 in0.0 mm 0.00 in0.0 mm
01:51 AM 33.4°F0.8°C 29.1°F-1.6°C 84% 8.9 mph NE14.3 kmh NE 14.0 mph22.5 kmh 30.39 in1029.1 mb 0.00 in0.0 mm 0.00 in0.0 mm 0.00 in0.0 mm
01:50 AM 33.4°F0.8°C 29.1°F-1.6°C 84% 10.4 mph NE16.7 kmh NE 14.0 mph22.5 kmh 30.39 in1029.1 mb 0.00 in0.0 mm 0.00 in0.0 mm 0.00 in0.0 mm
01:49 AM 33.4°F0.8°C 29.1°F-1.6°C 84% 8.4 mph NE13.5 kmh NE 12.0 mph19.3 kmh 30.39 in1029.1 mb 0.00 in0.0 mm 0.00 in0.0 mm 0.00 in0.0 mm
01:48 AM 33.5°F0.8°C 29.2°F-1.6°C 84% 7.8 mph NE12.6 kmh NE 11.0 mph17.7 kmh 30.39 in1029.1 mb 0.00 in0.0 mm 0.00 in0.0 mm 0.00 in0.0 mm
01:47 AM 33.4°F0.8°C 29.1°F-1.6°C 84% 5.9 mph NE9.5 kmh NE 13.0 mph20.9 kmh 30.39 in1029.1 mb 0.00 in0.0 mm 0.00 in0.0 mm 0.00 in0.0 mm
01:46 AM 33.4°F0.8°C 29.1°F-1.6°C 84% 9.5 mph NE15.3 kmh NE 13.0 mph20.9 kmh 30.39 in1029.1 mb 0.00 in0.0 mm 0.00 in0.0 mm 0.00 in0.0 mm
01:45 AM 33.4°F0.8°C 29.1°F-1.6°C 84% 10.9 mph ENE17.5 kmh ENE 13.0 mph20.9 kmh 30.39 in1029.1 mb 0.00 in0.0 mm 0.00 in0.0 mm 0.00 in0.0 mm
01:44 AM 33.4°F0.8°C 29.1°F-1.6°C 84% 9.2 mph NE14.8 kmh NE 13.0 mph20.9 kmh 30.39 in1029.1 mb 0.00 in0.0 mm 0.00 in0.0 mm 0.00 in0.0 mm
01:43 AM 33.4°F0.8°C 29.1°F-1.6°C 84% 9.5 mph ENE15.3 kmh ENE 13.0 mph20.9 kmh 30.39 in1029.1 mb 0.00 in0.0 mm 0.00 in0.0 mm 0.00 in0.0 mm
01:42 AM 33.4°F0.8°C 29.1°F-1.6°C 84% 6.5 mph NE10.5 kmh NE 15.0 mph24.1 kmh 30.39 in1029.1 mb 0.00 in0.0 mm 0.00 in0.0 mm 0.00 in0.0 mm
01:41 AM 33.4°F0.8°C 29.1°F-1.6°C 84% 10.4 mph ENE16.7 kmh ENE 15.0 mph24.1 kmh 30.39 in1029.1 mb 0.00 in0.0 mm 0.00 in0.0 mm 0.00 in0.0 mm
01:40 AM 33.4°F0.8°C 29.1°F-1.6°C 84% 7.8 mph NE12.6 kmh NE 13.0 mph20.9 kmh 30.39 in1029.1 mb 0.00 in0.0 mm 0.00 in0.0 mm 0.00 in0.0 mm
01:39 AM 33.4°F0.8°C 29.1°F-1.6°C 84% 7.6 mph NE12.2 kmh NE 12.0 mph19.3 kmh 30.39 in1029.1 mb 0.00 in0.0 mm 0.00 in0.0 mm 0.00 in0.0 mm
01:38 AM 33.4°F0.8°C 29.1°F-1.6°C 84% 9.5 mph NE15.3 kmh NE 12.0 mph19.3 kmh 30.39 in1029.1 mb 0.00 in0.0 mm 0.00 in0.0 mm 0.00 in0.0 mm
01:37 AM 33.4°F0.8°C 29.1°F-1.6°C 84% 6.7 mph NE10.8 kmh NE 12.0 mph19.3 kmh 30.39 in1029.1 mb 0.00 in0.0 mm 0.00 in0.0 mm 0.00 in0.0 mm
01:36 AM 33.4°F0.8°C 29.1°F-1.6°C 84% 10.0 mph NE16.1 kmh NE 12.0 mph19.3 kmh 30.39 in1029.1 mb 0.00 in0.0 mm 0.00 in0.0 mm 0.00 in0.0 mm
01:35 AM 33.4°F0.8°C 29.1°F-1.6°C 84% 10.0 mph NE16.1 kmh NE 14.0 mph22.5 kmh 30.39 in1029.1 mb 0.00 in0.0 mm 0.00 in0.0 mm 0.00 in0.0 mm
01:34 AM 33.3°F0.7°C 29.0°F-1.7°C 84% 8.0 mph NE12.9 kmh NE 11.0 mph17.7 kmh 30.39 in1029.1 mb 0.00 in0.0 mm 0.00 in0.0 mm 0.00 in0.0 mm
01:33 AM 33.4°F0.8°C 29.1°F-1.6°C 84% 12.0 mph NE19.3 kmh NE 16.0 mph25.7 kmh 30.39 in1029.1 mb 0.00 in0.0 mm 0.00 in0.0 mm 0.00 in0.0 mm
01:32 AM 33.3°F0.7°C 29.0°F-1.7°C 84% 9.9 mph NE15.9 kmh NE 16.0 mph25.7 kmh 30.39 in1029.1 mb 0.00 in0.0 mm 0.00 in0.0 mm 0.00 in0.0 mm
01:31 AM 33.4°F0.8°C 29.1°F-1.6°C 84% 10.2 mph NE16.4 kmh NE 12.0 mph19.3 kmh 30.39 in1029.1 mb 0.00 in0.0 mm 0.00 in0.0 mm 0.00 in0.0 mm
01:30 AM 33.4°F0.8°C 29.1°F-1.6°C 84% 7.6 mph ENE12.2 kmh ENE 12.0 mph19.3 kmh 30.39 in1029.1 mb 0.00 in0.0 mm 0.00 in0.0 mm 0.00 in0.0 mm
01:29 AM 33.4°F0.8°C 29.1°F-1.6°C 84% 9.2 mph NE14.8 kmh NE 12.0 mph19.3 kmh 30.39 in1029.1 mb 0.00 in0.0 mm 0.00 in0.0 mm 0.00 in0.0 mm
01:28 AM 33.4°F0.8°C 29.1°F-1.6°C 84% 8.7 mph NE14.0 kmh NE 13.0 mph20.9 kmh 30.39 in1029.1 mb 0.00 in0.0 mm 0.00 in0.0 mm 0.00 in0.0 mm
01:27 AM 33.3°F0.7°C 29.0°F-1.7°C 84% 9.7 mph NE15.6 kmh NE 13.0 mph20.9 kmh 30.39 in1029.1 mb 0.00 in0.0 mm 0.00 in0.0 mm 0.00 in0.0 mm
01:26 AM 33.3°F0.7°C 29.0°F-1.7°C 84% 8.0 mph NE12.9 kmh NE 11.0 mph17.7 kmh 30.39 in1029.1 mb 0.00 in0.0 mm 0.00 in0.0 mm 0.00 in0.0 mm
01:25 AM 33.3°F0.7°C 29.0°F-1.7°C 84% 7.0 mph NE11.3 kmh NE 12.0 mph19.3 kmh 30.39 in1029.1 mb 0.00 in0.0 mm 0.00 in0.0 mm 0.00 in0.0 mm
01:24 AM 33.3°F0.7°C 29.0°F-1.7°C 84% 9.6 mph NE15.4 kmh NE 12.0 mph19.3 kmh 30.39 in1029.1 mb 0.00 in0.0 mm 0.00 in0.0 mm 0.00 in0.0 mm
01:23 AM 33.3°F0.7°C 28.7°F-1.8°C 83% 8.5 mph NE13.7 kmh NE 12.0 mph19.3 kmh 30.39 in1029.1 mb 0.00 in0.0 mm 0.00 in0.0 mm 0.00 in0.0 mm
01:22 AM 33.2°F0.7°C 28.6°F-1.9°C 83% 6.0 mph NE9.7 kmh NE 9.0 mph14.5 kmh 30.39 in1029.1 mb 0.00 in0.0 mm 0.00 in0.0 mm 0.00 in0.0 mm
01:21 AM 33.2°F0.7°C 28.6°F-1.9°C 83% 6.6 mph NE10.6 kmh NE 12.0 mph19.3 kmh 30.39 in1029.1 mb 0.00 in0.0 mm 0.00 in0.0 mm 0.00 in0.0 mm
01:20 AM 33.2°F0.7°C 28.6°F-1.9°C 83% 10.1 mph NE16.3 kmh NE 12.0 mph19.3 kmh 30.39 in1029.1 mb 0.00 in0.0 mm 0.00 in0.0 mm 0.00 in0.0 mm
01:19 AM 33.2°F0.7°C 28.6°F-1.9°C 83% 7.0 mph NE11.3 kmh NE 15.0 mph24.1 kmh 30.39 in1029.1 mb 0.00 in0.0 mm 0.00 in0.0 mm 0.00 in0.0 mm
01:18 AM 33.1°F0.6°C 28.5°F-1.9°C 83% 11.7 mph NE18.8 kmh NE 15.0 mph24.1 kmh 30.40 in1029.5 mb 0.00 in0.0 mm 0.00 in0.0 mm 0.00 in0.0 mm
01:17 AM 33.1°F0.6°C 28.5°F-1.9°C 83% 9.5 mph NE15.3 kmh NE 13.0 mph20.9 kmh 30.39 in1029.1 mb 0.00 in0.0 mm 0.00 in0.0 mm 0.00 in0.0 mm
01:16 AM 33.1°F0.6°C 28.5°F-1.9°C 83% 8.7 mph NE14.0 kmh NE 11.0 mph17.7 kmh 30.40 in1029.5 mb 0.00 in0.0 mm 0.00 in0.0 mm 0.00 in0.0 mm
01:15 AM 33.0°F0.6°C 28.4°F-2.0°C 83% 7.9 mph NE12.7 kmh NE 11.0 mph17.7 kmh 30.40 in1029.5 mb 0.00 in0.0 mm 0.00 in0.0 mm 0.00 in0.0 mm
01:14 AM 33.0°F0.6°C 28.4°F-2.0°C 83% 7.0 mph NE11.3 kmh NE 11.0 mph17.7 kmh 30.40 in1029.5 mb 0.00 in0.0 mm 0.00 in0.0 mm 0.00 in0.0 mm
01:13 AM 33.0°F0.6°C 28.4°F-2.0°C 83% 7.0 mph NE11.3 kmh NE 11.0 mph17.7 kmh 30.40 in1029.5 mb 0.00 in0.0 mm 0.00 in0.0 mm 0.00 in0.0 mm
01:12 AM 32.9°F0.5°C 28.3°F-2.1°C 83% 6.1 mph NE9.8 kmh NE 13.0 mph20.9 kmh 30.40 in1029.5 mb 0.00 in0.0 mm 0.00 in0.0 mm 0.00 in0.0 mm
01:11 AM 32.9°F0.5°C 28.3°F-2.1°C 83% 8.6 mph NE13.8 kmh NE 13.0 mph20.9 kmh 30.39 in1029.1 mb 0.00 in0.0 mm 0.00 in0.0 mm 0.00 in0.0 mm
01:10 AM 32.9°F0.5°C 28.3°F-2.1°C 83% 6.0 mph NE9.7 kmh NE 11.0 mph17.7 kmh 30.40 in1029.5 mb 0.00 in0.0 mm 0.00 in0.0 mm 0.00 in0.0 mm
01:09 AM 32.9°F0.5°C 28.3°F-2.1°C 83% 6.7 mph NE10.8 kmh NE 11.0 mph17.7 kmh 30.40 in1029.5 mb 0.00 in0.0 mm 0.00 in0.0 mm 0.00 in0.0 mm
01:08 AM 32.9°F0.5°C 28.3°F-2.1°C 83% 7.6 mph NE12.2 kmh NE 11.0 mph17.7 kmh 30.40 in1029.5 mb 0.00 in0.0 mm 0.00 in0.0 mm 0.00 in0.0 mm
01:07 AM 32.9°F0.5°C 28.3°F-2.1°C 83% 7.2 mph NE11.6 kmh NE 11.0 mph17.7 kmh 30.40 in1029.5 mb 0.00 in0.0 mm 0.00 in0.0 mm 0.00 in0.0 mm
01:06 AM 32.8°F0.4°C 28.2°F-2.1°C 83% 5.5 mph NE8.9 kmh NE 10.0 mph16.1 kmh 30.39 in1029.1 mb 0.00 in0.0 mm 0.00 in0.0 mm 0.00 in0.0 mm
01:05 AM 32.8°F0.4°C 28.2°F-2.1°C 83% 6.0 mph NE9.7 kmh NE 10.0 mph16.1 kmh 30.40 in1029.5 mb 0.00 in0.0 mm 0.00 in0.0 mm 0.00 in0.0 mm
01:04 AM 32.8°F0.4°C 28.2°F-2.1°C 83% 6.5 mph NE10.5 kmh NE 9.0 mph14.5 kmh 30.40 in1029.5 mb 0.00 in0.0 mm 0.00 in0.0 mm 0.00 in0.0 mm
01:03 AM 32.8°F0.4°C 28.2°F-2.1°C 83% 5.1 mph NE8.2 kmh NE 9.0 mph14.5 kmh 30.40 in1029.5 mb 0.00 in0.0 mm 0.00 in0.0 mm 0.00 in0.0 mm
01:02 AM 32.8°F0.4°C 28.2°F-2.1°C 83% 5.3 mph NE8.5 kmh NE 9.0 mph14.5 kmh 30.40 in1029.5 mb 0.00 in0.0 mm 0.00 in0.0 mm 0.00 in0.0 mm
01:01 AM 32.8°F0.4°C 28.2°F-2.1°C 83% 4.1 mph NE6.6 kmh NE 9.0 mph14.5 kmh 30.40 in1029.5 mb 0.00 in0.0 mm 0.00 in0.0 mm 0.00 in0.0 mm
01:00 AM 32.8°F0.4°C 28.2°F-2.1°C 83% 6.1 mph NE9.8 kmh NE 9.0 mph14.5 kmh 30.40 in1029.5 mb 0.00 in0.0 mm 0.00 in0.0 mm 0.00 in0.0 mm
12:59 AM 32.8°F0.4°C 28.2°F-2.1°C 83% 5.5 mph NE8.9 kmh NE 9.0 mph14.5 kmh 30.40 in1029.5 mb 0.00 in0.0 mm 0.00 in0.0 mm 0.00 in0.0 mm
12:58 AM 32.8°F0.4°C 28.2°F-2.1°C 83% 5.3 mph NE8.5 kmh NE 8.0 mph12.9 kmh 30.40 in1029.5 mb 0.00 in0.0 mm 0.00 in0.0 mm 0.00 in0.0 mm
12:57 AM 32.7°F0.4°C 28.1°F-2.2°C 83% 4.0 mph NE6.4 kmh NE 5.0 mph8.0 kmh 30.40 in1029.5 mb 0.00 in0.0 mm 0.00 in0.0 mm 0.00 in0.0 mm
12:56 AM 32.7°F0.4°C 28.1°F-2.2°C 83% 5.0 mph NE8.0 kmh NE 7.0 mph11.3 kmh 30.40 in1029.5 mb 0.00 in0.0 mm 0.00 in0.0 mm 0.00 in0.0 mm
12:55 AM 32.7°F0.4°C 28.1°F-2.2°C 83% 6.0 mph NE9.7 kmh NE 9.0 mph14.5 kmh 30.40 in1029.5 mb 0.00 in0.0 mm 0.00 in0.0 mm 0.00 in0.0 mm
12:54 AM 32.7°F0.4°C 28.1°F-2.2°C 83% 5.1 mph NE8.2 kmh NE 8.0 mph12.9 kmh 30.40 in1029.5 mb 0.00 in0.0 mm 0.00 in0.0 mm 0.00 in0.0 mm
12:53 AM 32.7°F0.4°C 28.1°F-2.2°C 83% 4.9 mph NE7.9 kmh NE 9.0 mph14.5 kmh 30.40 in1029.5 mb 0.00 in0.0 mm 0.00 in0.0 mm 0.00 in0.0 mm
12:52 AM 32.6°F0.3°C 28.0°F-2.2°C 83% 5.7 mph NE9.2 kmh NE 9.0 mph14.5 kmh 30.40 in1029.5 mb 0.00 in0.0 mm 0.00 in0.0 mm 0.00 in0.0 mm
12:51 AM 32.6°F0.3°C 28.0°F-2.2°C 83% 6.3 mph NE10.1 kmh NE 9.0 mph14.5 kmh 30.40 in1029.5 mb 0.00 in0.0 mm 0.00 in0.0 mm 0.00 in0.0 mm
12:50 AM 32.6°F0.3°C 28.0°F-2.2°C 83% 6.3 mph NE10.1 kmh NE 9.0 mph14.5 kmh 30.40 in1029.5 mb 0.00 in0.0 mm 0.00 in0.0 mm 0.00 in0.0 mm
12:49 AM 32.6°F0.3°C 28.0°F-2.2°C 83% 6.0 mph NE9.7 kmh NE 7.0 mph11.3 kmh 30.40 in1029.5 mb 0.00 in0.0 mm 0.00 in0.0 mm 0.00 in0.0 mm
12:48 AM 32.6°F0.3°C 28.0°F-2.2°C 83% 5.5 mph NE8.9 kmh NE 9.0 mph14.5 kmh 30.40 in1029.5 mb 0.00 in0.0 mm 0.00 in0.0 mm 0.00 in0.0 mm
12:47 AM 32.6°F0.3°C 28.0°F-2.2°C 83% 5.1 mph NE8.2 kmh NE 10.0 mph16.1 kmh 30.40 in1029.5 mb 0.00 in0.0 mm 0.00 in0.0 mm 0.00 in0.0 mm
12:46 AM 32.6°F0.3°C 28.0°F-2.2°C 83% 6.2 mph NE10.0 kmh NE 10.0 mph16.1 kmh 30.40 in1029.5 mb 0.00 in0.0 mm 0.00 in0.0 mm 0.00 in0.0 mm
12:45 AM 32.6°F0.3°C 28.0°F-2.2°C 83% 6.5 mph NE10.5 kmh NE 9.0 mph14.5 kmh 30.40 in1029.5 mb 0.00 in0.0 mm 0.00 in0.0 mm 0.00 in0.0 mm
12:44 AM 32.5°F0.3°C 27.9°F-2.3°C 83% 5.8 mph NE9.3 kmh NE 9.0 mph14.5 kmh 30.40 in1029.5 mb 0.00 in0.0 mm 0.00 in0.0 mm 0.00 in0.0 mm
12:43 AM 32.6°F0.3°C 28.0°F-2.2°C 83% 5.8 mph NE9.3 kmh NE 9.0 mph14.5 kmh 30.40 in1029.5 mb 0.00 in0.0 mm 0.00 in0.0 mm 0.00 in0.0 mm
12:42 AM 32.5°F0.3°C 27.9°F-2.3°C 83% 5.1 mph NE8.2 kmh NE 9.0 mph14.5 kmh 30.40 in1029.5 mb 0.00 in0.0 mm 0.00 in0.0 mm 0.00 in0.0 mm
12:41 AM 32.5°F0.3°C 27.9°F-2.3°C 83% 5.0 mph NE8.0 kmh NE 9.0 mph14.5 kmh 30.40 in1029.5 mb 0.00 in0.0 mm 0.00 in0.0 mm 0.00 in0.0 mm
12:40 AM 32.5°F0.3°C 27.9°F-2.3°C 83% 7.0 mph NE11.3 kmh NE 9.0 mph14.5 kmh 30.40 in1029.5 mb 0.00 in0.0 mm 0.00 in0.0 mm 0.00 in0.0 mm
12:39 AM 32.5°F0.3°C 27.9°F-2.3°C 83% 5.0 mph NE8.0 kmh NE 7.0 mph11.3 kmh 30.40 in1029.5 mb 0.00 in0.0 mm 0.00 in0.0 mm 0.00 in0.0 mm
12:38 AM 32.5°F0.3°C 27.9°F-2.3°C 83% 5.5 mph NE8.9 kmh NE 7.0 mph11.3 kmh 30.40 in1029.5 mb 0.00 in0.0 mm 0.00 in0.0 mm 0.00 in0.0 mm
12:37 AM 32.5°F0.3°C 27.6°F-2.4°C 82% 4.6 mph NE7.4 kmh NE 7.0 mph11.3 kmh 30.40 in1029.5 mb 0.00 in0.0 mm 0.00 in0.0 mm 0.00 in0.0 mm
12:36 AM 32.5°F0.3°C 27.6°F-2.4°C 82% 4.8 mph NE7.7 kmh NE 7.0 mph11.3 kmh 30.40 in1029.5 mb 0.00 in0.0 mm 0.00 in0.0 mm 0.00 in0.0 mm
12:35 AM 32.5°F0.3°C 27.6°F-2.4°C 82% 5.4 mph NE8.7 kmh NE 9.0 mph14.5 kmh 30.40 in1029.5 mb 0.00 in0.0 mm 0.00 in0.0 mm 0.00 in0.0 mm
12:34 AM 32.5°F0.3°C 27.6°F-2.4°C 82% 4.9 mph NE7.9 kmh NE 8.0 mph12.9 kmh 30.40 in1029.5 mb 0.00 in0.0 mm 0.00 in0.0 mm 0.00 in0.0 mm
12:33 AM 32.5°F0.3°C 27.6°F-2.4°C 82% 5.9 mph NE9.5 kmh NE 8.0 mph12.9 kmh 30.40 in1029.5 mb 0.00 in0.0 mm 0.00 in0.0 mm 0.00 in0.0 mm
12:32 AM 32.5°F0.3°C 27.6°F-2.4°C 82% 6.1 mph NE9.8 kmh NE 10.0 mph16.1 kmh 30.40 in1029.5 mb 0.00 in0.0 mm 0.00 in0.0 mm 0.00 in0.0 mm
12:31 AM 32.4°F0.2°C 27.5°F-2.5°C 82% 6.6 mph NE10.6 kmh NE 10.0 mph16.1 kmh 30.40 in1029.5 mb 0.00 in0.0 mm 0.00 in0.0 mm 0.00 in0.0 mm
12:30 AM 32.5°F0.3°C 27.6°F-2.4°C 82% 5.2 mph NE8.4 kmh NE 7.0 mph11.3 kmh 30.40 in1029.5 mb 0.00 in0.0 mm 0.00 in0.0 mm 0.00 in0.0 mm
12:29 AM 32.4°F0.2°C 27.5°F-2.5°C 82% 5.8 mph NE9.3 kmh NE 9.0 mph14.5 kmh 30.40 in1029.5 mb 0.00 in0.0 mm 0.00 in0.0 mm 0.00 in0.0 mm
12:28 AM 32.4°F0.2°C 27.5°F-2.5°C 82% 5.9 mph NE9.5 kmh NE 9.0 mph14.5 kmh 30.40 in1029.5 mb 0.00 in0.0 mm 0.00 in0.0 mm 0.00 in0.0 mm
12:27 AM 32.4°F0.2°C 27.5°F-2.5°C 82% 5.6 mph NE9.0 kmh NE 9.0 mph14.5 kmh 30.40 in1029.5 mb 0.00 in0.0 mm 0.00 in0.0 mm 0.00 in0.0 mm
12:26 AM 32.4°F0.2°C 27.5°F-2.5°C 82% 6.2 mph NE10.0 kmh NE 9.0 mph14.5 kmh 30.40 in1029.5 mb 0.00 in0.0 mm 0.00 in0.0 mm 0.00 in0.0 mm
12:25 AM 32.4°F0.2°C 27.5°F-2.5°C 82% 3.5 mph NE5.6 kmh NE 7.0 mph11.3 kmh 30.40 in1029.5 mb 0.00 in0.0 mm 0.00 in0.0 mm 0.00 in0.0 mm
12:24 AM 32.4°F0.2°C 27.5°F-2.5°C 82% 5.1 mph NE8.2 kmh NE 9.0 mph14.5 kmh 30.40 in1029.5 mb 0.00 in0.0 mm 0.00 in0.0 mm 0.00 in0.0 mm
12:23 AM 32.3°F0.2°C 27.4°F-2.6°C 82% 5.7 mph NE9.2 kmh NE 9.0 mph14.5 kmh 30.40 in1029.5 mb 0.00 in0.0 mm 0.00 in0.0 mm 0.00 in0.0 mm
12:22 AM 32.3°F0.2°C 27.4°F-2.6°C 82% 5.5 mph NE8.9 kmh NE 7.0 mph11.3 kmh 30.40 in1029.5 mb 0.00 in0.0 mm 0.00 in0.0 mm 0.00 in0.0 mm
12:21 AM 32.4°F0.2°C 27.5°F-2.5°C 82% 4.6 mph NE7.4 kmh NE 6.0 mph9.7 kmh 30.39 in1029.1 mb 0.00 in0.0 mm 0.00 in0.0 mm 0.00 in0.0 mm
12:20 AM 32.3°F0.2°C 27.4°F-2.6°C 82% 7.0 mph NE11.3 kmh NE 9.0 mph14.5 kmh 30.40 in1029.5 mb 0.00 in0.0 mm 0.00 in0.0 mm 0.00 in0.0 mm
12:19 AM 32.3°F0.2°C 27.4°F-2.6°C 82% 6.0 mph NE9.7 kmh NE 9.0 mph14.5 kmh 30.39 in1029.1 mb 0.00 in0.0 mm 0.00 in0.0 mm 0.00 in0.0 mm
12:18 AM 32.3°F0.2°C 27.4°F-2.6°C 82% 5.0 mph NE8.0 kmh NE 6.0 mph9.7 kmh 30.40 in1029.5 mb 0.00 in0.0 mm 0.00 in0.0 mm 0.00 in0.0 mm
12:17 AM 32.3°F0.2°C 27.4°F-2.6°C 82% 6.5 mph NE10.5 kmh NE 10.0 mph16.1 kmh 30.40 in1029.5 mb 0.00 in0.0 mm 0.00 in0.0 mm 0.00 in0.0 mm
12:16 AM 32.3°F0.2°C 27.4°F-2.6°C 82% 6.8 mph NE10.9 kmh NE 10.0 mph16.1 kmh 30.40 in1029.5 mb 0.00 in0.0 mm 0.00 in0.0 mm 0.00 in0.0 mm
12:15 AM 32.3°F0.2°C 27.4°F-2.6°C 82% 6.1 mph NE9.8 kmh NE 9.0 mph14.5 kmh 30.40 in1029.5 mb 0.00 in0.0 mm 0.00 in0.0 mm 0.00 in0.0 mm
12:14 AM 32.3°F0.2°C 27.1°F-2.7°C 81% 5.7 mph NE9.2 kmh NE 10.0 mph16.1 kmh 30.40 in1029.5 mb 0.00 in0.0 mm 0.00 in0.0 mm 0.00 in0.0 mm
12:13 AM 32.4°F0.2°C 27.5°F-2.5°C 82% 5.7 mph NE9.2 kmh NE 10.0 mph16.1 kmh 30.39 in1029.1 mb 0.00 in0.0 mm 0.00 in0.0 mm 0.00 in0.0 mm
12:12 AM 32.4°F0.2°C 27.5°F-2.5°C 82% 5.9 mph NE9.5 kmh NE 9.0 mph14.5 kmh 30.39 in1029.1 mb 0.00 in0.0 mm 0.00 in0.0 mm 0.00 in0.0 mm
12:11 AM 32.4°F0.2°C 27.2°F-2.7°C 81% 6.3 mph NE10.1 kmh NE 9.0 mph14.5 kmh 30.39 in1029.1 mb 0.00 in0.0 mm 0.00 in0.0 mm 0.00 in0.0 mm
12:10 AM 32.3°F0.2°C 27.1°F-2.7°C 81% 5.0 mph NE8.0 kmh NE 9.0 mph14.5 kmh 30.39 in1029.1 mb 0.00 in0.0 mm 0.00 in0.0 mm 0.00 in0.0 mm
12:09 AM 32.4°F0.2°C 27.2°F-2.7°C 81% 6.5 mph NE10.5 kmh NE 9.0 mph14.5 kmh 30.40 in1029.5 mb 0.00 in0.0 mm 0.00 in0.0 mm 0.00 in0.0 mm
12:08 AM 32.4°F0.2°C 27.2°F-2.7°C 81% 5.9 mph NE9.5 kmh NE 9.0 mph14.5 kmh 30.39 in1029.1 mb 0.00 in0.0 mm 0.00 in0.0 mm 0.00 in0.0 mm
12:07 AM 32.4°F0.2°C 27.2°F-2.7°C 81% 5.1 mph NE8.2 kmh NE 7.0 mph11.3 kmh 30.39 in1029.1 mb 0.00 in0.0 mm 0.00 in0.0 mm 0.00 in0.0 mm
12:06 AM 32.5°F0.3°C 27.3°F-2.6°C 81% 6.0 mph NE9.7 kmh NE 8.0 mph12.9 kmh 30.39 in1029.1 mb 0.00 in0.0 mm 0.00 in0.0 mm 0.00 in0.0 mm
12:05 AM 32.5°F0.3°C 27.3°F-2.6°C 81% 5.9 mph NE9.5 kmh NE 10.0 mph16.1 kmh 30.39 in1029.1 mb 0.00 in0.0 mm 0.00 in0.0 mm 0.00 in0.0 mm
12:04 AM 32.6°F0.3°C 27.4°F-2.6°C 81% 6.4 mph NE10.3 kmh NE 10.0 mph16.1 kmh 30.40 in1029.5 mb 0.00 in0.0 mm 0.00 in0.0 mm 0.00 in0.0 mm
12:03 AM 32.6°F0.3°C 27.4°F-2.6°C 81% 5.6 mph NE9.0 kmh NE 11.0 mph17.7 kmh 30.39 in1029.1 mb 0.00 in0.0 mm 0.00 in0.0 mm 0.00 in0.0 mm
12:02 AM 32.6°F0.3°C 27.4°F-2.6°C 81% 5.9 mph NE9.5 kmh NE 11.0 mph17.7 kmh 30.39 in1029.1 mb 0.00 in0.0 mm 0.00 in0.0 mm 0.00 in0.0 mm
12:01 AM 32.6°F0.3°C 27.4°F-2.6°C 81% 5.4 mph NE8.7 kmh NE 9.0 mph14.5 kmh 30.39 in1029.1 mb 0.00 in0.0 mm 0.00 in0.0 mm 0.00 in0.0 mm
12:00 AM 32.7°F0.4°C 27.5°F-2.5°C 81% 5.5 mph NE8.9 kmh NE 9.0 mph14.5 kmh 30.39 in1029.1 mb 0.00 in0.0 mm 0.00 in0.0 mm 0.00 in0.0 mm